Jay, Florida
Current Conditions -  °F | °C
As of 11:56 AM on Tuesday 21 Oct 2014 (Local Time) from KNSE Reporting Station
Few Clouds Few Clouds  
Wind Chill: 76°   Ceiling: Unl
Heat Index: 76°   Visibility: 10mi
Dew Point: 51°   Wind: 8mph
Humidity: 42%   Direction: 10°N
Pressure: 30.04"   Gusts: NA
Location:  30.95°N, 87.15°W
Report Text: KNSE 211656Z 01007KT 10SM FEW250 24/11 A3004 RMK AO2 SLP158 T02440106 $
Loading
Personal Weather Stations






























Interactive Weather Map
Tropical Storm Tracking
New forecast layout! Learn more

10-Day Weather Forecast

Advertisements
Track Severe Weather on mobile